sensor_id;sensor_type;location;lat;lon;timestamp;pressure;altitude;pressure_sealevel;temperature
64600;BMP280;6553;48.412;9.514;2023-11-22T00:00:55;71690.06;;;20.10
64600;BMP280;6553;48.412;9.514;2023-11-22T00:03:21;71697.09;;;20.14
64600;BMP280;6553;48.412;9.514;2023-11-22T00:05:46;71692.75;;;20.12
64600;BMP280;6553;48.412;9.514;2023-11-22T00:08:13;71692.31;;;20.09
64600;BMP280;6553;48.412;9.514;2023-11-22T00:10:39;71692.31;;;20.09
64600;BMP280;6553;48.412;9.514;2023-11-22T00:13:04;71686.78;;;20.09
64600;BMP280;6553;48.412;9.514;2023-11-22T00:15:30;71685.59;;;20.11
64600;BMP280;6553;48.412;9.514;2023-11-22T00:17:56;71685.59;;;20.11
64600;BMP280;6553;48.412;9.514;2023-11-22T00:20:29;71691.16;;;20.11
64600;BMP280;6553;48.412;9.514;2023-11-22T00:22:56;71689.97;;;20.12
64600;BMP280;6553;48.412;9.514;2023-11-22T00:25:22;71692.31;;;20.09
64600;BMP280;6553;48.412;9.514;2023-11-22T00:27:48;71691.16;;;20.11
64600;BMP280;6553;48.412;9.514;2023-11-22T00:30:14;71683.59;;;20.06
64600;BMP280;6553;48.412;9.514;2023-11-22T00:32:40;71688.50;;;20.08
64600;BMP280;6553;48.412;9.514;2023-11-22T00:35:07;71692.19;;;20.12
64600;BMP280;6553;48.412;9.514;2023-11-22T00:37:34;71688.91;;;20.11
64600;BMP280;6553;48.412;9.514;2023-11-22T00:40:02;71690.06;;;20.10
64600;BMP280;6553;48.412;9.514;2023-11-22T00:42:40;71691.78;;;20.09
64600;BMP280;6553;48.412;9.514;2023-11-22T00:45:09;71694.97;;;20.12
64600;BMP280;6553;48.412;9.514;2023-11-22T00:47:36;71691.69;;;20.11
64600;BMP280;6553;48.412;9.514;2023-11-22T00:50:03;71692.31;;;20.09
64600;BMP280;6553;48.412;9.514;2023-11-22T00:52:32;71696.16;;;20.10
64600;BMP280;6553;48.412;9.514;2023-11-22T00:54:57;71689.56;;;20.09
64600;BMP280;6553;48.412;9.514;2023-11-22T00:57:23;71688.91;;;20.11
64600;BMP280;6553;48.412;9.514;2023-11-22T00:59:49;71686.91;;;20.07
64600;BMP280;6553;48.412;9.514;2023-11-22T01:02:16;71693.38;;;20.10
64600;BMP280;6553;48.412;9.514;2023-11-22T01:04:42;71689.56;;;20.09
64600;BMP280;6553;48.412;9.514;2023-11-22T01:07:07;71689.56;;;20.09
64600;BMP280;6553;48.412;9.514;2023-11-22T01:09:33;71689.03;;;20.09
64600;BMP280;6553;48.412;9.514;2023-11-22T01:12:00;71689.56;;;20.09
64600;BMP280;6553;48.412;9.514;2023-11-22T01:14:26;71691.69;;;20.11
64600;BMP280;6553;48.412;9.514;2023-11-22T01:16:52;71686.38;;;20.06
64600;BMP280;6553;48.412;9.514;2023-11-22T01:19:20;71690.63;;;20.10
64600;BMP280;6553;48.412;9.514;2023-11-22T01:21:46;71692.75;;;20.12
64600;BMP280;6553;48.412;9.514;2023-11-22T01:24:12;71689.56;;;20.09
64600;BMP280;6553;48.412;9.514;2023-11-22T01:26:38;71690.63;;;20.10
64600;BMP280;6553;48.412;9.514;2023-11-22T01:29:04;71696.03;;;20.13
64600;BMP280;6553;48.412;9.514;2023-11-22T01:31:31;71689.56;;;20.09
64600;BMP280;6553;48.412;9.514;2023-11-22T01:33:59;71689.03;;;20.09
64600;BMP280;6553;48.412;9.514;2023-11-22T01:36:26;71685.59;;;20.11
64600;BMP280;6553;48.412;9.514;2023-11-22T01:38:53;71687.84;;;20.10
64600;BMP280;6553;48.412;9.514;2023-11-22T01:41:19;71692.75;;;20.12
64600;BMP280;6553;48.412;9.514;2023-11-22T01:43:45;71685.06;;;20.10
64600;BMP280;6553;48.412;9.514;2023-11-22T01:46:22;71695.41;;;20.15
64600;BMP280;6553;48.412;9.514;2023-11-22T01:48:50;71687.84;;;20.10
64600;BMP280;6553;48.412;9.514;2023-11-22T01:51:16;71689.03;;;20.09
64600;BMP280;6553;48.412;9.514;2023-11-22T01:53:42;71689.44;;;20.12
64600;BMP280;6553;48.412;9.514;2023-11-22T01:56:08;71690.63;;;20.10
64600;BMP280;6553;48.412;9.514;2023-11-22T01:58:35;71695.09;;;20.09
64600;BMP280;6553;48.412;9.514;2023-11-22T02:01:04;71691.69;;;20.11
64600;BMP280;6553;48.412;9.514;2023-11-22T02:03:30;71689.03;;;20.09
64600;BMP280;6553;48.412;9.514;2023-11-22T02:05:56;71686.78;;;20.09
64600;BMP280;6553;48.412;9.514;2023-11-22T02:08:22;71688.91;;;20.11
64600;BMP280;6553;48.412;9.514;2023-11-22T02:10:58;71689.03;;;20.09
64600;BMP280;6553;48.412;9.514;2023-11-22T02:13:24;71691.16;;;20.11
64600;BMP280;6553;48.412;9.514;2023-11-22T02:15:50;71691.25;;;20.08
64600;BMP280;6553;48.412;9.514;2023-11-22T02:18:16;71690.63;;;20.10
64600;BMP280;6553;48.412;9.514;2023-11-22T02:20:42;71693.91;;;20.11
64600;BMP280;6553;48.412;9.514;2023-11-22T02:23:09;71693.81;;;20.13
64600;BMP280;6553;48.412;9.514;2023-11-22T02:25:37;71689.44;;;20.12
64600;BMP280;6553;48.412;9.514;2023-11-22T02:28:03;71689.97;;;20.12
64600;BMP280;6553;48.412;9.514;2023-11-22T02:30:29;71693.28;;;20.13
64600;BMP280;6553;48.412;9.514;2023-11-22T02:32:55;71693.28;;;20.13
64600;BMP280;6553;48.412;9.514;2023-11-22T02:35:21;71691.69;;;20.11
64600;BMP280;6553;48.412;9.514;2023-11-22T02:37:46;71696.59;;;20.13
64600;BMP280;6553;48.412;9.514;2023-11-22T02:40:22;71695.41;;;20.15
64600;BMP280;6553;48.412;9.514;2023-11-22T02:42:49;71697.00;;;20.16
64600;BMP280;6553;48.412;9.514;2023-11-22T02:45:17;71687.72;;;20.13
64600;BMP280;6553;48.412;9.514;2023-11-22T02:47:44;71693.38;;;20.10
64600;BMP280;6553;48.412;9.514;2023-11-22T02:50:13;71687.31;;;20.10
64600;BMP280;6553;48.412;9.514;2023-11-22T02:52:39;71689.56;;;20.09
64600;BMP280;6553;48.412;9.514;2023-11-22T02:55:06;71691.78;;;20.09
64600;BMP280;6553;48.412;9.514;2023-11-22T02:57:32;71691.16;;;20.11
64600;BMP280;6553;48.412;9.514;2023-11-22T02:59:58;71689.03;;;20.09
64600;BMP280;6553;48.412;9.514;2023-11-22T03:02:24;71693.38;;;20.10
64600;BMP280;6553;48.412;9.514;2023-11-22T03:04:52;71687.44;;;20.07
64600;BMP280;6553;48.412;9.514;2023-11-22T03:07:18;71691.03;;;20.13
64600;BMP280;6553;48.412;9.514;2023-11-22T03:09:46;71689.56;;;20.09
64600;BMP280;6553;48.412;9.514;2023-11-22T03:12:12;71689.56;;;20.09
64600;BMP280;6553;48.412;9.514;2023-11-22T03:14:40;71688.91;;;20.11
64600;BMP280;6553;48.412;9.514;2023-11-22T03:17:06;71695.91;;;20.15
64600;BMP280;6553;48.412;9.514;2023-11-22T03:19:32;71693.28;;;20.13
64600;BMP280;6553;48.412;9.514;2023-11-22T03:22:00;71691.03;;;20.13
64600;BMP280;6553;48.412;9.514;2023-11-22T03:24:29;71689.03;;;20.09
64600;BMP280;6553;48.412;9.514;2023-11-22T03:26:56;71692.75;;;20.12
64600;BMP280;6553;48.412;9.514;2023-11-22T03:29:25;71687.19;;;20.12
64600;BMP280;6553;48.412;9.514;2023-11-22T03:31:52;71689.56;;;20.09
64600;BMP280;6553;48.412;9.514;2023-11-22T03:34:19;71699.34;;;20.13
64600;BMP280;6553;48.412;9.514;2023-11-22T03:36:45;71689.44;;;20.12
64600;BMP280;6553;48.412;9.514;2023-11-22T03:39:11;71695.50;;;20.12
64600;BMP280;6553;48.412;9.514;2023-11-22T03:41:37;71687.84;;;20.10
64600;BMP280;6553;48.412;9.514;2023-11-22T03:44:05;71692.09;;;20.14
64600;BMP280;6553;48.412;9.514;2023-11-22T03:46:38;71687.84;;;20.10
64600;BMP280;6553;48.412;9.514;2023-11-22T03:49:05;71694.88;;;20.14
64600;BMP280;6553;48.412;9.514;2023-11-22T03:51:35;71697.22;;;20.11
64600;BMP280;6553;48.412;9.514;2023-11-22T03:54:02;71690.50;;;20.13
64600;BMP280;6553;48.412;9.514;2023-11-22T03:56:29;71687.19;;;20.12
64600;BMP280;6553;48.412;9.514;2023-11-22T03:58:55;71694.31;;;20.14
64600;BMP280;6553;48.412;9.514;2023-11-22T04:01:21;71691.03;;;20.13
64600;BMP280;6553;48.412;9.514;2023-11-22T04:03:48;71688.38;;;20.11
64600;BMP280;6553;48.412;9.514;2023-11-22T04:06:15;71697.00;;;20.16
64600;BMP280;6553;48.412;9.514;2023-11-22T04:08:43;71693.16;;;20.15
64600;BMP280;6553;48.412;9.514;2023-11-22T04:11:10;71697.00;;;20.16
64600;BMP280;6553;48.412;9.514;2023-11-22T04:13:36;71687.19;;;20.12
64600;BMP280;6553;48.412;9.514;2023-11-22T04:16:02;71693.81;;;20.13
64600;BMP280;6553;48.412;9.514;2023-11-22T04:18:28;71689.84;;;20.15
64600;BMP280;6553;48.412;9.514;2023-11-22T04:20:54;71692.75;;;20.12
64600;BMP280;6553;48.412;9.514;2023-11-22T04:23:20;71693.69;;;20.16
64600;BMP280;6553;48.412;9.514;2023-11-22T04:25:47;71692.09;;;20.14
64600;BMP280;6553;48.412;9.514;2023-11-22T04:28:15;71692.53;;;20.17
64600;BMP280;6553;48.412;9.514;2023-11-22T04:30:41;71697.09;;;20.14
64600;BMP280;6553;48.412;9.514;2023-11-22T04:33:07;71692.75;;;20.12
64600;BMP280;6553;48.412;9.514;2023-11-22T04:35:33;71686.78;;;20.09
64600;BMP280;6553;48.412;9.514;2023-11-22T04:38:02;71694.97;;;20.12
64600;BMP280;6553;48.412;9.514;2023-11-22T04:40:30;71687.72;;;20.13
64600;BMP280;6553;48.412;9.514;2023-11-22T04:42:55;71687.84;;;20.10
64600;BMP280;6553;48.412;9.514;2023-11-22T04:45:21;71698.16;;;20.15
64600;BMP280;6553;48.412;9.514;2023-11-22T04:47:47;71688.91;;;20.11
64600;BMP280;6553;48.412;9.514;2023-11-22T04:50:13;71690.06;;;20.10
64600;BMP280;6553;48.412;9.514;2023-11-22T04:52:39;71690.63;;;20.10
64600;BMP280;6553;48.412;9.514;2023-11-22T04:55:05;71690.63;;;20.10
64600;BMP280;6553;48.412;9.514;2023-11-22T04:57:31;71690.50;;;20.13
64600;BMP280;6553;48.412;9.514;2023-11-22T04:59:57;71691.56;;;20.14
64600;BMP280;6553;48.412;9.514;2023-11-22T05:02:23;71692.75;;;20.12
64600;BMP280;6553;48.412;9.514;2023-11-22T05:08:55;71697.75;;;20.12
64600;BMP280;6553;48.412;9.514;2023-11-22T05:11:21;71691.69;;;20.11
64600;BMP280;6553;48.412;9.514;2023-11-22T05:13:47;71690.63;;;20.10
64600;BMP280;6553;48.412;9.514;2023-11-22T05:16:13;71686.78;;;20.09
64600;BMP280;6553;48.412;9.514;2023-11-22T05:18:39;71692.84;;;20.10
64600;BMP280;6553;48.412;9.514;2023-11-22T05:21:05;71687.97;;;20.08
64600;BMP280;6553;48.412;9.514;2023-11-22T05:23:31;71692.19;;;20.12
64600;BMP280;6553;48.412;9.514;2023-11-22T05:26:03;71688.91;;;20.11
64600;BMP280;6553;48.412;9.514;2023-11-22T05:28:31;71691.16;;;20.11
64600;BMP280;6553;48.412;9.514;2023-11-22T05:30:57;71686.25;;;20.09
64600;BMP280;6553;48.412;9.514;2023-11-22T05:33:23;71687.44;;;20.07
64600;BMP280;6553;48.412;9.514;2023-11-22T05:35:49;71682.44;;;20.08
64600;BMP280;6553;48.412;9.514;2023-11-22T05:38:15;71686.78;;;20.09
64600;BMP280;6553;48.412;9.514;2023-11-22T05:40:41;71687.44;;;20.07
64600;BMP280;6553;48.412;9.514;2023-11-22T05:43:09;71687.44;;;20.07
64600;BMP280;6553;48.412;9.514;2023-11-22T05:45:35;71683.72;;;20.04
64600;BMP280;6553;48.412;9.514;2023-11-22T05:48:01;71683.72;;;20.04
64600;BMP280;6553;48.412;9.514;2023-11-22T05:50:27;71678.28;;;20.01
64600;BMP280;6553;48.412;9.514;2023-11-22T05:52:53;71672.03;;;19.93
64600;BMP280;6553;48.412;9.514;2023-11-22T05:55:18;71679.88;;;20.03
64600;BMP280;6553;48.412;9.514;2023-11-22T05:57:44;71683.19;;;20.03
64600;BMP280;6553;48.412;9.514;2023-11-22T06:00:11;71682.09;;;20.02
64600;BMP280;6553;48.412;9.514;2023-11-22T06:02:37;71677.84;;;19.98
64600;BMP280;6553;48.412;9.514;2023-11-22T06:05:05;71677.22;;;20.00
64600;BMP280;6553;48.412;9.514;2023-11-22T06:07:33;71683.81;;;20.01
64600;BMP280;6553;48.412;9.514;2023-11-22T06:09:59;71682.09;;;20.02
64600;BMP280;6553;48.412;9.514;2023-11-22T06:12:28;71684.34;;;20.02
64600;BMP280;6553;48.412;9.514;2023-11-22T06:14:54;71682.09;;;20.02
64600;BMP280;6553;48.412;9.514;2023-11-22T06:17:20;71678.94;;;19.99
64600;BMP280;6553;48.412;9.514;2023-11-22T06:19:46;71679.34;;;20.02
64600;BMP280;6553;48.412;9.514;2023-11-22T06:22:12;71678.28;;;20.01
64600;BMP280;6553;48.412;9.514;2023-11-22T06:24:37;71680.41;;;20.03
64600;BMP280;6553;48.412;9.514;2023-11-22T06:27:03;71682.66;;;20.03
64600;BMP280;6553;48.412;9.514;2023-11-22T06:29:29;71677.78;;;20.01
64600;BMP280;6553;48.412;9.514;2023-11-22T06:31:55;71678.94;;;19.99
64600;BMP280;6553;48.412;9.514;2023-11-22T06:34:21;71682.09;;;20.02
64600;BMP280;6553;48.412;9.514;2023-11-22T06:36:46;71683.19;;;20.03
64600;BMP280;6553;48.412;9.514;2023-11-22T06:39:12;71677.09;;;20.03
64600;BMP280;6553;48.412;9.514;2023-11-22T06:41:42;71686.50;;;20.04
64600;BMP280;6553;48.412;9.514;2023-11-22T06:44:08;71681.34;;;20.07
64600;BMP280;6553;48.412;9.514;2023-11-22T06:46:35;71686.50;;;20.04
64600;BMP280;6553;48.412;9.514;2023-11-22T06:49:00;71684.88;;;20.02
64600;BMP280;6553;48.412;9.514;2023-11-22T06:51:26;71681.03;;;20.01
64600;BMP280;6553;48.412;9.514;2023-11-22T06:53:52;71683.72;;;20.04
64600;BMP280;6553;48.412;9.514;2023-11-22T06:56:20;71679.47;;;20.00
64600;BMP280;6553;48.412;9.514;2023-11-22T06:58:45;71680.53;;;20.01
64600;BMP280;6553;48.412;9.514;2023-11-22T07:01:12;71681.47;;;20.04
64600;BMP280;6553;48.412;9.514;2023-11-22T07:03:38;71676.81;;;19.97
64600;BMP280;6553;48.412;9.514;2023-11-22T07:06:04;71676.56;;;20.02
64600;BMP280;6553;48.412;9.514;2023-11-22T07:08:30;71683.19;;;20.03
64600;BMP280;6553;48.412;9.514;2023-11-22T07:10:56;71689.13;;;20.06
64600;BMP280;6553;48.412;9.514;2023-11-22T07:13:23;71678.28;;;20.01
64600;BMP280;6553;48.412;9.514;2023-11-22T07:15:50;71677.66;;;20.03
64600;BMP280;6553;48.412;9.514;2023-11-22T07:18:17;71677.84;;;19.98
64600;BMP280;6553;48.412;9.514;2023-11-22T07:20:42;71678.94;;;19.99
64600;BMP280;6553;48.412;9.514;2023-11-22T07:23:08;71675.50;;;20.01
64600;BMP280;6553;48.412;9.514;2023-11-22T07:25:39;71678.81;;;20.02
64600;BMP280;6553;48.412;9.514;2023-11-22T07:28:05;71676.28;;;19.97
64600;BMP280;6553;48.412;9.514;2023-11-22T07:30:31;71676.16;;;19.99
64600;BMP280;6553;48.412;9.514;2023-11-22T07:32:59;71684.88;;;20.02
64600;BMP280;6553;48.412;9.514;2023-11-22T07:35:25;71675.75;;;19.96
64600;BMP280;6553;48.412;9.514;2023-11-22T07:37:53;71678.53;;;19.96
64600;BMP280;6553;48.412;9.514;2023-11-22T07:40:20;71674.03;;;19.97
64600;BMP280;6553;48.412;9.514;2023-11-22T07:42:47;71680.63;;;19.98
64600;BMP280;6553;48.412;9.514;2023-11-22T07:45:13;71675.09;;;19.98
64600;BMP280;6553;48.412;9.514;2023-11-22T07:47:39;71680.41;;;20.03
64600;BMP280;6553;48.412;9.514;2023-11-22T07:50:10;71681.03;;;20.01
64600;BMP280;6553;48.412;9.514;2023-11-22T07:52:37;71682.88;;;19.98
64600;BMP280;6553;48.412;9.514;2023-11-22T07:55:04;71678.41;;;19.99
64600;BMP280;6553;48.412;9.514;2023-11-22T07:57:34;71685.41;;;20.03
64600;BMP280;6553;48.412;9.514;2023-11-22T08:00:00;71678.28;;;20.01
64600;BMP280;6553;48.412;9.514;2023-11-22T08:02:27;71668.31;;;19.89
64600;BMP280;6553;48.412;9.514;2023-11-22T08:04:53;71684.78;;;20.05
64600;BMP280;6553;48.412;9.514;2023-11-22T08:07:20;71680.00;;;20.00
64600;BMP280;6553;48.412;9.514;2023-11-22T08:09:48;71672.97;;;19.96
64600;BMP280;6553;48.412;9.514;2023-11-22T08:12:14;71678.41;;;19.99
64600;BMP280;6553;48.412;9.514;2023-11-22T08:14:40;71682.09;;;20.02
64600;BMP280;6553;48.412;9.514;2023-11-22T08:17:06;71678.28;;;20.01
64600;BMP280;6553;48.412;9.514;2023-11-22T08:19:32;71678.94;;;19.99
64600;BMP280;6553;48.412;9.514;2023-11-22T08:21:58;71670.44;;;19.91
64600;BMP280;6553;48.412;9.514;2023-11-22T08:24:24;71679.47;;;20.00
64600;BMP280;6553;48.412;9.514;2023-11-22T08:26:49;71676.81;;;19.97
64600;BMP280;6553;48.412;9.514;2023-11-22T08:29:15;71673.50;;;19.97
64600;BMP280;6553;48.412;9.514;2023-11-22T08:31:41;71674.47;;;20.00
64600;BMP280;6553;48.412;9.514;2023-11-22T08:34:07;71669.78;;;19.93
64600;BMP280;6553;48.412;9.514;2023-11-22T08:36:34;71670.97;;;19.92
64600;BMP280;6553;48.412;9.514;2023-11-22T08:39:01;71672.56;;;19.93
64600;BMP280;6553;48.412;9.514;2023-11-22T08:41:28;71672.56;;;19.93
64600;BMP280;6553;48.412;9.514;2023-11-22T08:43:56;71668.84;;;19.90
64600;BMP280;6553;48.412;9.514;2023-11-22T08:46:22;71676.81;;;19.97
64600;BMP280;6553;48.412;9.514;2023-11-22T08:48:49;71669.78;;;19.93
64600;BMP280;6553;48.412;9.514;2023-11-22T08:51:17;71675.75;;;19.96
64600;BMP280;6553;48.412;9.514;2023-11-22T08:53:43;71668.06;;;19.94
64600;BMP280;6553;48.412;9.514;2023-11-22T08:56:12;71671.50;;;19.92
64600;BMP280;6553;48.412;9.514;2023-11-22T08:58:39;71670.22;;;19.96
64600;BMP280;6553;48.412;9.514;2023-11-22T09:01:06;71671.38;;;19.95
64600;BMP280;6553;48.412;9.514;2023-11-22T09:03:33;71673.59;;;19.94
64600;BMP280;6553;48.412;9.514;2023-11-22T09:05:58;71671.50;;;19.92
64600;BMP280;6553;48.412;9.514;2023-11-22T09:08:26;71674.69;;;19.95
64600;BMP280;6553;48.412;9.514;2023-11-22T09:10:52;71672.03;;;19.93
64600;BMP280;6553;48.412;9.514;2023-11-22T09:13:18;71672.66;;;19.91
64600;BMP280;6553;48.412;9.514;2023-11-22T09:15:46;71668.31;;;19.89
64600;BMP280;6553;48.412;9.514;2023-11-22T09:18:12;71672.78;;;19.88
64600;BMP280;6553;48.412;9.514;2023-11-22T09:20:39;71669.38;;;19.90
64600;BMP280;6553;48.412;9.514;2023-11-22T09:23:04;71663.31;;;19.90
64600;BMP280;6553;48.412;9.514;2023-11-22T09:25:31;71672.97;;;19.96
64600;BMP280;6553;48.412;9.514;2023-11-22T09:27:59;71670.22;;;19.96
64600;BMP280;6553;48.412;9.514;2023-11-22T09:30:30;71676.16;;;19.99
64600;BMP280;6553;48.412;9.514;2023-11-22T09:33:13;71671.50;;;19.92
64600;BMP280;6553;48.412;9.514;2023-11-22T09:35:42;71676.28;;;19.97
64600;BMP280;6553;48.412;9.514;2023-11-22T09:38:10;71670.84;;;19.94
64600;BMP280;6553;48.412;9.514;2023-11-22T09:40:43;71667.56;;;19.94
64600;BMP280;6553;48.412;9.514;2023-11-22T09:43:11;71680.22;;;19.95
64600;BMP280;6553;48.412;9.514;2023-11-22T09:45:37;71672.03;;;19.93
64600;BMP280;6553;48.412;9.514;2023-11-22T09:48:17;71673.75;;;19.92
64600;BMP280;6553;48.412;9.514;2023-11-22T09:50:56;71672.78;;;19.88
64600;BMP280;6553;48.412;9.514;2023-11-22T09:53:44;71660.75;;;19.85
64600;BMP280;6553;48.412;9.514;2023-11-22T09:56:12;71663.84;;;19.90
64600;BMP280;6553;48.412;9.514;2023-11-22T09:58:43;71677.69;;;19.90
64600;BMP280;6553;48.412;9.514;2023-11-22T10:01:11;71662.34;;;19.86
64600;BMP280;6553;48.412;9.514;2023-11-22T10:03:39;71671.06;;;19.89
64600;BMP280;6553;48.412;9.514;2023-11-22T10:06:06;71673.75;;;19.92
64600;BMP280;6553;48.412;9.514;2023-11-22T10:08:33;71676.50;;;19.92
64600;BMP280;6553;48.412;9.514;2023-11-22T10:10:59;71665.97;;;19.92
64600;BMP280;6553;48.412;9.514;2023-11-22T10:13:26;71663.94;;;19.88
64600;BMP280;6553;48.412;9.514;2023-11-22T10:15:53;71666.19;;;19.87
64600;BMP280;6553;48.412;9.514;2023-11-22T10:18:22;71665.13;;;19.86
64600;BMP280;6553;48.412;9.514;2023-11-22T10:20:50;71656.41;;;19.83
64600;BMP280;6553;48.412;9.514;2023-11-22T10:23:19;71660.63;;;19.87
64600;BMP280;6553;48.412;9.514;2023-11-22T10:25:52;71659.59;;;19.86
64600;BMP280;6553;48.412;9.514;2023-11-22T10:28:20;71665.25;;;19.84
64600;BMP280;6553;48.412;9.514;2023-11-22T10:30:49;71668.00;;;19.84
64600;BMP280;6553;48.412;9.514;2023-11-22T10:33:18;71659.28;;;19.81
64600;BMP280;6553;48.412;9.514;2023-11-22T10:35:50;71666.72;;;19.88
64600;BMP280;6553;48.412;9.514;2023-11-22T10:38:20;71664.59;;;19.86
64600;BMP280;6553;48.412;9.514;2023-11-22T10:40:47;71668.94;;;19.87
64600;BMP280;6553;48.412;9.514;2023-11-22T10:43:17;71666.59;;;19.90
64600;BMP280;6553;48.412;9.514;2023-11-22T10:45:44;71668.31;;;19.89
64600;BMP280;6553;48.412;9.514;2023-11-22T10:48:16;71665.66;;;19.87
64600;BMP280;6553;48.412;9.514;2023-11-22T10:50:44;71672.16;;;19.90
64600;BMP280;6553;48.412;9.514;2023-11-22T10:53:12;71670.44;;;19.91
64600;BMP280;6553;48.412;9.514;2023-11-22T10:55:44;71667.25;;;19.88
64600;BMP280;6553;48.412;9.514;2023-11-22T10:58:12;71671.63;;;19.90
64600;BMP280;6553;48.412;9.514;2023-11-22T11:00:42;71669.50;;;19.88
64600;BMP280;6553;48.412;9.514;2023-11-22T11:03:14;71663.41;;;19.87
64600;BMP280;6553;48.412;9.514;2023-11-22T11:05:52;71671.72;;;19.87
64600;BMP280;6553;48.412;9.514;2023-11-22T11:08:23;71662.91;;;19.87
64600;BMP280;6553;48.412;9.514;2023-11-22T11:10:51;71663.84;;;19.90
64600;BMP280;6553;48.412;9.514;2023-11-22T11:13:18;71663.53;;;19.85
64600;BMP280;6553;48.412;9.514;2023-11-22T11:15:44;71667.13;;;19.91
64600;BMP280;6553;48.412;9.514;2023-11-22T11:18:14;71664.59;;;19.86
64600;BMP280;6553;48.412;9.514;2023-11-22T11:20:57;71667.78;;;19.89
64600;BMP280;6553;48.412;9.514;2023-11-22T11:23:27;71661.28;;;19.85
64600;BMP280;6553;48.412;9.514;2023-11-22T11:28:21;71664.06;;;19.85
64600;BMP280;6553;48.412;9.514;2023-11-22T11:30:48;71666.72;;;19.88
64600;BMP280;6553;48.412;9.514;2023-11-22T11:33:19;71666.19;;;19.87
64600;BMP280;6553;48.412;9.514;2023-11-22T11:35:51;71657.97;;;19.85
64600;BMP280;6553;48.412;9.514;2023-11-22T11:38:21;71661.41;;;19.83
64600;BMP280;6553;48.412;9.514;2023-11-22T11:40:52;71663.66;;;19.82
64600;BMP280;6553;48.412;9.514;2023-11-22T11:43:47;71658.09;;;19.82
64600;BMP280;6553;48.412;9.514;2023-11-22T11:46:15;71664.06;;;19.85
64600;BMP280;6553;48.412;9.514;2023-11-22T11:48:48;71661.81;;;19.86
64600;BMP280;6553;48.412;9.514;2023-11-22T11:51:19;71657.97;;;19.85
64600;BMP280;6553;48.412;9.514;2023-11-22T11:53:46;71655.47;;;19.80
64600;BMP280;6553;48.412;9.514;2023-11-22T11:56:13;71660.75;;;19.85
64600;BMP280;6553;48.412;9.514;2023-11-22T11:58:41;71654.28;;;19.81
64600;BMP280;6553;48.412;9.514;2023-11-22T12:01:08;71661.41;;;19.83
64600;BMP280;6553;48.412;9.514;2023-11-22T12:03:38;71663.53;;;19.85
64600;BMP280;6553;48.412;9.514;2023-11-22T12:06:06;71664.59;;;19.86
64600;BMP280;6553;48.412;9.514;2023-11-22T12:08:31;71655.97;;;19.80
64600;BMP280;6553;48.412;9.514;2023-11-22T12:11:03;71656.94;;;19.84
64600;BMP280;6553;48.412;9.514;2023-11-22T12:13:30;71661.50;;;19.80
64600;BMP280;6553;48.412;9.514;2023-11-22T12:15:57;71656.94;;;19.84
64600;BMP280;6553;48.412;9.514;2023-11-22T12:18:23;71653.72;;;19.81
64600;BMP280;6553;48.412;9.514;2023-11-22T12:20:56;71659.81;;;19.81
64600;BMP280;6553;48.412;9.514;2023-11-22T12:23:24;71659.81;;;19.81
64600;BMP280;6553;48.412;9.514;2023-11-22T12:25:57;71659.81;;;19.81
64600;BMP280;6553;48.412;9.514;2023-11-22T12:28:32;71661.94;;;19.83
64600;BMP280;6553;48.412;9.514;2023-11-22T12:31:13;71659.69;;;19.84
64600;BMP280;6553;48.412;9.514;2023-11-22T12:33:43;71662.97;;;19.84
64600;BMP280;6553;48.412;9.514;2023-11-22T12:36:11;71658.50;;;19.85
64600;BMP280;6553;48.412;9.514;2023-11-22T12:38:41;71659.81;;;19.81
64600;BMP280;6553;48.412;9.514;2023-11-22T12:41:07;71657.56;;;19.82
64600;BMP280;6553;48.412;9.514;2023-11-22T12:43:33;71653.88;;;19.78
64600;BMP280;6553;48.412;9.514;2023-11-22T12:46:05;71654.28;;;19.81
64600;BMP280;6553;48.412;9.514;2023-11-22T12:48:39;71659.81;;;19.81
64600;BMP280;6553;48.412;9.514;2023-11-22T12:51:15;71658.25;;;19.80
64600;BMP280;6553;48.412;9.514;2023-11-22T12:53:45;71660.88;;;19.82
64600;BMP280;6553;48.412;9.514;2023-11-22T12:56:11;71658.72;;;19.80
64600;BMP280;6553;48.412;9.514;2023-11-22T12:58:37;71658.72;;;19.80
64600;BMP280;6553;48.412;9.514;2023-11-22T13:01:03;71652.69;;;19.80
64600;BMP280;6553;48.412;9.514;2023-11-22T13:03:29;71658.25;;;19.80
64600;BMP280;6553;48.412;9.514;2023-11-22T13:05:55;71655.56;;;19.77
64600;BMP280;6553;48.412;9.514;2023-11-22T13:08:21;71658.25;;;19.80
64600;BMP280;6553;48.412;9.514;2023-11-22T13:10:49;71657.16;;;19.79
64600;BMP280;6553;48.412;9.514;2023-11-22T13:13:25;71659.81;;;19.81
64600;BMP280;6553;48.412;9.514;2023-11-22T13:15:53;71653.72;;;19.81
64600;BMP280;6553;48.412;9.514;2023-11-22T13:18:19;71657.69;;;19.79
64600;BMP280;6553;48.412;9.514;2023-11-22T13:20:47;71657.69;;;19.79
64600;BMP280;6553;48.412;9.514;2023-11-22T13:23:12;71658.72;;;19.80
64600;BMP280;6553;48.412;9.514;2023-11-22T13:25:39;71657.69;;;19.79
64600;BMP280;6553;48.412;9.514;2023-11-22T13:28:07;71657.03;;;19.81
64600;BMP280;6553;48.412;9.514;2023-11-22T13:30:34;71657.69;;;19.79
64600;BMP280;6553;48.412;9.514;2023-11-22T13:33:01;71662.97;;;19.84
64600;BMP280;6553;48.412;9.514;2023-11-22T13:35:29;71662.47;;;19.84
64600;BMP280;6553;48.412;9.514;2023-11-22T13:38:03;71661.41;;;19.83
64600;BMP280;6553;48.412;9.514;2023-11-22T13:40:35;71658.25;;;19.80
64600;BMP280;6553;48.412;9.514;2023-11-22T13:43:01;71658.25;;;19.80
64600;BMP280;6553;48.412;9.514;2023-11-22T13:45:26;71659.81;;;19.81
64600;BMP280;6553;48.412;9.514;2023-11-22T13:47:54;71654.28;;;19.81
64600;BMP280;6553;48.412;9.514;2023-11-22T13:50:26;71660.47;;;19.79
64600;BMP280;6553;48.412;9.514;2023-11-22T13:52:54;71661.94;;;19.83
64600;BMP280;6553;48.412;9.514;2023-11-22T13:55:20;71656.09;;;19.78
64600;BMP280;6553;48.412;9.514;2023-11-22T13:57:51;71665.88;;;19.82
64600;BMP280;6553;48.412;9.514;2023-11-22T14:00:19;71657.69;;;19.79
64600;BMP280;6553;48.412;9.514;2023-11-22T14:02:46;71657.69;;;19.79
64600;BMP280;6553;48.412;9.514;2023-11-22T14:05:12;71653.31;;;19.78
64600;BMP280;6553;48.412;9.514;2023-11-22T14:07:38;71655.03;;;19.77
64600;BMP280;6553;48.412;9.514;2023-11-22T14:10:05;71653.88;;;19.78
64600;BMP280;6553;48.412;9.514;2023-11-22T14:12:32;71658.88;;;19.78
64600;BMP280;6553;48.412;9.514;2023-11-22T14:14:59;71659.28;;;19.81
64600;BMP280;6553;48.412;9.514;2023-11-22T14:17:25;71657.69;;;19.79
64600;BMP280;6553;48.412;9.514;2023-11-22T14:19:52;71658.25;;;19.80
64600;BMP280;6553;48.412;9.514;2023-11-22T14:22:19;71651.19;;;19.76
64600;BMP280;6553;48.412;9.514;2023-11-22T14:24:47;71655.56;;;19.77
64600;BMP280;6553;48.412;9.514;2023-11-22T14:27:12;71653.31;;;19.78
64600;BMP280;6553;48.412;9.514;2023-11-22T14:29:39;71663.25;;;19.79